sensor_id;sensor_type;location;lat;lon;timestamp;P1;durP1;ratioP1;P2;durP2;ratioP2
73454;SDS011;61690;51.824;6.306;2023-07-09T00:01:12;11.82;;;6.50;;
73454;SDS011;61690;51.824;6.306;2023-07-09T00:03:39;11.77;;;6.50;;
73454;SDS011;61690;51.824;6.306;2023-07-09T00:06:07;11.10;;;6.43;;
73454;SDS011;61690;51.824;6.306;2023-07-09T00:08:33;13.00;;;6.53;;
73454;SDS011;61690;51.824;6.306;2023-07-09T00:10:58;11.13;;;6.33;;
73454;SDS011;61690;51.824;6.306;2023-07-09T00:13:24;11.87;;;6.37;;
73454;SDS011;61690;51.824;6.306;2023-07-09T00:15:51;10.53;;;6.60;;
73454;SDS011;61690;51.824;6.306;2023-07-09T00:18:19;12.85;;;7.00;;
73454;SDS011;61690;51.824;6.306;2023-07-09T00:20:45;11.80;;;6.53;;
73454;SDS011;61690;51.824;6.306;2023-07-09T00:23:13;10.82;;;7.13;;
73454;SDS011;61690;51.824;6.306;2023-07-09T00:25:41;12.53;;;7.00;;
73454;SDS011;61690;51.824;6.306;2023-07-09T00:28:18;13.98;;;8.35;;
73454;SDS011;61690;51.824;6.306;2023-07-09T00:30:45;15.70;;;9.18;;
73454;SDS011;61690;51.824;6.306;2023-07-09T00:33:11;26.58;;;15.55;;
73454;SDS011;61690;51.824;6.306;2023-07-09T00:35:39;23.05;;;13.20;;
73454;SDS011;61690;51.824;6.306;2023-07-09T00:38:07;11.87;;;7.40;;
73454;SDS011;61690;51.824;6.306;2023-07-09T00:40:37;11.00;;;7.22;;
73454;SDS011;61690;51.824;6.306;2023-07-09T00:43:04;11.83;;;7.20;;
73454;SDS011;61690;51.824;6.306;2023-07-09T00:45:41;11.57;;;6.97;;
73454;SDS011;61690;51.824;6.306;2023-07-09T00:48:09;11.80;;;7.10;;
73454;SDS011;61690;51.824;6.306;2023-07-09T00:53:23;12.95;;;7.30;;
73454;SDS011;61690;51.824;6.306;2023-07-09T00:55:56;11.63;;;6.90;;
73454;SDS011;61690;51.824;6.306;2023-07-09T00:58:26;11.82;;;7.35;;
73454;SDS011;61690;51.824;6.306;2023-07-09T01:01:05;12.20;;;7.20;;
73454;SDS011;61690;51.824;6.306;2023-07-09T01:03:36;12.18;;;7.30;;
73454;SDS011;61690;51.824;6.306;2023-07-09T01:06:09;12.13;;;7.55;;
73454;SDS011;61690;51.824;6.306;2023-07-09T01:08:36;13.63;;;8.05;;
73454;SDS011;61690;51.824;6.306;2023-07-09T01:11:13;13.23;;;7.65;;
73454;SDS011;61690;51.824;6.306;2023-07-09T01:13:40;12.37;;;7.40;;
73454;SDS011;61690;51.824;6.306;2023-07-09T01:16:05;13.83;;;7.70;;
73454;SDS011;61690;51.824;6.306;2023-07-09T01:18:31;13.43;;;7.72;;
73454;SDS011;61690;51.824;6.306;2023-07-09T01:21:02;11.93;;;7.30;;
73454;SDS011;61690;51.824;6.306;2023-07-09T01:23:34;13.10;;;7.53;;
73454;SDS011;61690;51.824;6.306;2023-07-09T01:26:01;12.63;;;7.93;;
73454;SDS011;61690;51.824;6.306;2023-07-09T01:28:27;11.43;;;7.57;;
73454;SDS011;61690;51.824;6.306;2023-07-09T01:30:54;12.40;;;7.93;;
73454;SDS011;61690;51.824;6.306;2023-07-09T01:33:21;14.30;;;8.45;;
73454;SDS011;61690;51.824;6.306;2023-07-09T01:35:48;12.88;;;7.55;;
73454;SDS011;61690;51.824;6.306;2023-07-09T01:38:13;15.13;;;8.33;;
73454;SDS011;61690;51.824;6.306;2023-07-09T01:40:38;12.77;;;8.17;;
73454;SDS011;61690;51.824;6.306;2023-07-09T01:43:04;19.42;;;8.23;;
73454;SDS011;61690;51.824;6.306;2023-07-09T01:45:31;12.53;;;7.70;;
73454;SDS011;61690;51.824;6.306;2023-07-09T01:47:58;13.00;;;7.60;;
73454;SDS011;61690;51.824;6.306;2023-07-09T01:50:23;13.20;;;7.63;;
73454;SDS011;61690;51.824;6.306;2023-07-09T01:52:49;12.50;;;7.00;;
73454;SDS011;61690;51.824;6.306;2023-07-09T01:55:15;12.55;;;6.82;;
73454;SDS011;61690;51.824;6.306;2023-07-09T01:57:42;12.47;;;7.37;;
73454;SDS011;61690;51.824;6.306;2023-07-09T02:00:11;12.63;;;6.97;;
73454;SDS011;61690;51.824;6.306;2023-07-09T02:02:39;13.57;;;7.60;;
73454;SDS011;61690;51.824;6.306;2023-07-09T02:05:08;12.20;;;7.30;;
73454;SDS011;61690;51.824;6.306;2023-07-09T02:07:35;13.00;;;7.13;;
73454;SDS011;61690;51.824;6.306;2023-07-09T02:10:01;11.10;;;6.73;;
73454;SDS011;61690;51.824;6.306;2023-07-09T02:12:26;12.10;;;6.90;;
73454;SDS011;61690;51.824;6.306;2023-07-09T02:14:51;11.40;;;7.40;;
73454;SDS011;61690;51.824;6.306;2023-07-09T02:17:17;11.43;;;6.57;;
73454;SDS011;61690;51.824;6.306;2023-07-09T02:19:43;15.68;;;7.00;;
73454;SDS011;61690;51.824;6.306;2023-07-09T02:22:08;14.07;;;7.53;;
73454;SDS011;61690;51.824;6.306;2023-07-09T02:24:34;11.48;;;6.53;;
73454;SDS011;61690;51.824;6.306;2023-07-09T02:27:01;10.50;;;6.83;;
73454;SDS011;61690;51.824;6.306;2023-07-09T02:29:28;13.05;;;7.15;;
73454;SDS011;61690;51.824;6.306;2023-07-09T02:31:55;13.15;;;7.28;;
73454;SDS011;61690;51.824;6.306;2023-07-09T02:34:22;12.20;;;7.30;;
73454;SDS011;61690;51.824;6.306;2023-07-09T02:36:50;12.38;;;6.88;;
73454;SDS011;61690;51.824;6.306;2023-07-09T02:39:20;13.63;;;6.80;;
73454;SDS011;61690;51.824;6.306;2023-07-09T02:41:46;11.68;;;7.20;;
73454;SDS011;61690;51.824;6.306;2023-07-09T02:44:12;10.77;;;6.75;;
73454;SDS011;61690;51.824;6.306;2023-07-09T02:46:38;10.47;;;7.03;;
73454;SDS011;61690;51.824;6.306;2023-07-09T02:49:04;11.45;;;6.70;;
73454;SDS011;61690;51.824;6.306;2023-07-09T02:51:30;13.10;;;7.60;;
73454;SDS011;61690;51.824;6.306;2023-07-09T02:53:57;17.08;;;8.70;;
73454;SDS011;61690;51.824;6.306;2023-07-09T02:56:23;14.68;;;9.32;;
73454;SDS011;61690;51.824;6.306;2023-07-09T02:58:49;16.33;;;7.78;;
73454;SDS011;61690;51.824;6.306;2023-07-09T03:01:15;14.90;;;8.93;;
73454;SDS011;61690;51.824;6.306;2023-07-09T03:03:41;13.63;;;8.10;;
73454;SDS011;61690;51.824;6.306;2023-07-09T03:06:07;14.50;;;7.40;;
73454;SDS011;61690;51.824;6.306;2023-07-09T03:08:33;12.35;;;7.70;;
73454;SDS011;61690;51.824;6.306;2023-07-09T03:10:58;15.90;;;8.23;;
73454;SDS011;61690;51.824;6.306;2023-07-09T03:13:24;14.40;;;8.07;;
73454;SDS011;61690;51.824;6.306;2023-07-09T03:15:56;17.03;;;9.73;;
73454;SDS011;61690;51.824;6.306;2023-07-09T03:18:22;15.07;;;9.30;;
73454;SDS011;61690;51.824;6.306;2023-07-09T03:20:48;14.75;;;8.57;;
73454;SDS011;61690;51.824;6.306;2023-07-09T03:23:13;12.43;;;7.40;;
73454;SDS011;61690;51.824;6.306;2023-07-09T03:25:42;13.23;;;7.33;;
73454;SDS011;61690;51.824;6.306;2023-07-09T03:28:08;14.77;;;7.65;;
73454;SDS011;61690;51.824;6.306;2023-07-09T03:30:33;14.97;;;8.73;;
73454;SDS011;61690;51.824;6.306;2023-07-09T03:32:58;12.00;;;7.53;;
73454;SDS011;61690;51.824;6.306;2023-07-09T03:35:25;13.50;;;8.15;;
73454;SDS011;61690;51.824;6.306;2023-07-09T03:37:50;12.80;;;8.13;;
73454;SDS011;61690;51.824;6.306;2023-07-09T03:40:22;15.53;;;9.07;;
73454;SDS011;61690;51.824;6.306;2023-07-09T03:42:49;12.67;;;7.77;;
73454;SDS011;61690;51.824;6.306;2023-07-09T03:45:14;13.85;;;7.03;;
73454;SDS011;61690;51.824;6.306;2023-07-09T03:47:40;13.63;;;7.70;;
73454;SDS011;61690;51.824;6.306;2023-07-09T03:50:08;13.50;;;7.93;;
73454;SDS011;61690;51.824;6.306;2023-07-09T03:52:34;12.43;;;7.73;;
73454;SDS011;61690;51.824;6.306;2023-07-09T03:55:00;12.35;;;8.13;;
73454;SDS011;61690;51.824;6.306;2023-07-09T03:57:27;15.05;;;8.07;;
73454;SDS011;61690;51.824;6.306;2023-07-09T03:59:52;13.17;;;8.20;;
73454;SDS011;61690;51.824;6.306;2023-07-09T04:02:18;13.83;;;7.73;;
73454;SDS011;61690;51.824;6.306;2023-07-09T04:04:43;15.73;;;8.00;;
73454;SDS011;61690;51.824;6.306;2023-07-09T04:07:09;11.77;;;7.35;;
73454;SDS011;61690;51.824;6.306;2023-07-09T04:09:34;12.57;;;6.87;;
73454;SDS011;61690;51.824;6.306;2023-07-09T04:11:59;14.40;;;7.20;;
73454;SDS011;61690;51.824;6.306;2023-07-09T04:14:26;14.38;;;7.63;;
73454;SDS011;61690;51.824;6.306;2023-07-09T04:16:52;14.57;;;8.67;;
73454;SDS011;61690;51.824;6.306;2023-07-09T04:19:17;14.13;;;8.73;;
73454;SDS011;61690;51.824;6.306;2023-07-09T04:21:42;15.45;;;9.07;;
73454;SDS011;61690;51.824;6.306;2023-07-09T04:24:08;15.80;;;8.93;;
73454;SDS011;61690;51.824;6.306;2023-07-09T04:26:33;16.67;;;8.80;;
73454;SDS011;61690;51.824;6.306;2023-07-09T04:29:00;15.18;;;9.23;;
73454;SDS011;61690;51.824;6.306;2023-07-09T04:31:25;14.73;;;8.60;;
73454;SDS011;61690;51.824;6.306;2023-07-09T04:33:50;14.40;;;9.53;;
73454;SDS011;61690;51.824;6.306;2023-07-09T04:36:17;15.90;;;9.48;;
73454;SDS011;61690;51.824;6.306;2023-07-09T04:38:42;13.90;;;8.70;;
73454;SDS011;61690;51.824;6.306;2023-07-09T04:41:08;14.23;;;8.97;;
73454;SDS011;61690;51.824;6.306;2023-07-09T04:43:33;13.27;;;8.53;;
73454;SDS011;61690;51.824;6.306;2023-07-09T04:45:58;14.53;;;8.70;;
73454;SDS011;61690;51.824;6.306;2023-07-09T04:48:24;13.40;;;8.60;;
73454;SDS011;61690;51.824;6.306;2023-07-09T04:50:49;12.93;;;8.57;;
73454;SDS011;61690;51.824;6.306;2023-07-09T04:53:15;13.33;;;8.53;;
73454;SDS011;61690;51.824;6.306;2023-07-09T04:55:41;14.43;;;8.38;;
73454;SDS011;61690;51.824;6.306;2023-07-09T04:58:07;14.27;;;9.10;;
73454;SDS011;61690;51.824;6.306;2023-07-09T05:00:32;15.27;;;9.17;;
73454;SDS011;61690;51.824;6.306;2023-07-09T05:02:58;14.97;;;9.23;;
73454;SDS011;61690;51.824;6.306;2023-07-09T05:05:23;16.33;;;8.90;;
73454;SDS011;61690;51.824;6.306;2023-07-09T05:07:48;14.23;;;9.00;;
73454;SDS011;61690;51.824;6.306;2023-07-09T05:10:14;15.63;;;9.50;;
73454;SDS011;61690;51.824;6.306;2023-07-09T05:12:49;15.87;;;9.50;;
73454;SDS011;61690;51.824;6.306;2023-07-09T05:15:16;14.07;;;9.82;;
73454;SDS011;61690;51.824;6.306;2023-07-09T05:17:43;16.15;;;9.88;;
73454;SDS011;61690;51.824;6.306;2023-07-09T05:20:08;14.67;;;9.43;;
73454;SDS011;61690;51.824;6.306;2023-07-09T05:22:34;14.52;;;9.27;;
73454;SDS011;61690;51.824;6.306;2023-07-09T05:24:59;13.50;;;7.80;;
73454;SDS011;61690;51.824;6.306;2023-07-09T05:27:25;15.47;;;8.73;;
73454;SDS011;61690;51.824;6.306;2023-07-09T05:29:50;11.97;;;8.30;;
73454;SDS011;61690;51.824;6.306;2023-07-09T05:32:15;14.07;;;8.57;;
73454;SDS011;61690;51.824;6.306;2023-07-09T05:34:41;13.60;;;8.83;;
73454;SDS011;61690;51.824;6.306;2023-07-09T05:37:06;13.10;;;8.33;;
73454;SDS011;61690;51.824;6.306;2023-07-09T05:39:33;15.98;;;9.52;;
73454;SDS011;61690;51.824;6.306;2023-07-09T05:41:58;16.40;;;9.60;;
73454;SDS011;61690;51.824;6.306;2023-07-09T05:44:24;15.53;;;9.80;;
73454;SDS011;61690;51.824;6.306;2023-07-09T05:46:50;13.57;;;9.75;;
73454;SDS011;61690;51.824;6.306;2023-07-09T05:49:15;15.73;;;10.50;;
73454;SDS011;61690;51.824;6.306;2023-07-09T05:51:40;19.47;;;10.93;;
73454;SDS011;61690;51.824;6.306;2023-07-09T05:54:06;17.30;;;10.32;;
73454;SDS011;61690;51.824;6.306;2023-07-09T05:56:31;15.53;;;9.87;;
73454;SDS011;61690;51.824;6.306;2023-07-09T05:58:57;22.15;;;10.65;;
73454;SDS011;61690;51.824;6.306;2023-07-09T06:01:23;16.33;;;10.30;;
73454;SDS011;61690;51.824;6.306;2023-07-09T06:03:48;13.00;;;9.57;;
73454;SDS011;61690;51.824;6.306;2023-07-09T06:06:14;14.47;;;9.50;;
73454;SDS011;61690;51.824;6.306;2023-07-09T06:08:40;14.40;;;9.37;;
73454;SDS011;61690;51.824;6.306;2023-07-09T06:11:07;14.70;;;8.02;;
73454;SDS011;61690;51.824;6.306;2023-07-09T06:13:32;15.45;;;9.10;;
73454;SDS011;61690;51.824;6.306;2023-07-09T06:16:00;14.20;;;9.15;;
73454;SDS011;61690;51.824;6.306;2023-07-09T06:18:26;14.40;;;8.40;;
73454;SDS011;61690;51.824;6.306;2023-07-09T06:20:56;13.88;;;8.80;;
73454;SDS011;61690;51.824;6.306;2023-07-09T06:23:25;15.27;;;9.15;;
73454;SDS011;61690;51.824;6.306;2023-07-09T06:25:51;13.83;;;8.40;;
73454;SDS011;61690;51.824;6.306;2023-07-09T06:28:19;13.55;;;8.00;;
73454;SDS011;61690;51.824;6.306;2023-07-09T06:30:46;13.50;;;7.65;;
73454;SDS011;61690;51.824;6.306;2023-07-09T06:33:13;12.17;;;7.43;;
73454;SDS011;61690;51.824;6.306;2023-07-09T06:35:45;14.07;;;7.53;;
73454;SDS011;61690;51.824;6.306;2023-07-09T06:38:12;13.77;;;7.45;;
73454;SDS011;61690;51.824;6.306;2023-07-09T06:40:37;14.23;;;7.50;;
73454;SDS011;61690;51.824;6.306;2023-07-09T06:43:02;13.87;;;7.77;;
73454;SDS011;61690;51.824;6.306;2023-07-09T06:45:29;13.77;;;8.00;;
73454;SDS011;61690;51.824;6.306;2023-07-09T06:47:54;13.43;;;7.20;;
73454;SDS011;61690;51.824;6.306;2023-07-09T06:50:19;14.07;;;8.20;;
73454;SDS011;61690;51.824;6.306;2023-07-09T06:52:45;11.20;;;7.22;;
73454;SDS011;61690;51.824;6.306;2023-07-09T06:55:11;12.50;;;7.23;;
73454;SDS011;61690;51.824;6.306;2023-07-09T06:57:36;11.17;;;7.30;;
73454;SDS011;61690;51.824;6.306;2023-07-09T07:00:02;10.87;;;6.97;;
73454;SDS011;61690;51.824;6.306;2023-07-09T07:02:28;11.07;;;7.15;;
73454;SDS011;61690;51.824;6.306;2023-07-09T07:04:53;10.93;;;7.10;;
73454;SDS011;61690;51.824;6.306;2023-07-09T07:07:19;11.60;;;7.10;;
73454;SDS011;61690;51.824;6.306;2023-07-09T07:09:45;10.40;;;7.15;;
73454;SDS011;61690;51.824;6.306;2023-07-09T07:12:13;11.37;;;7.10;;
73454;SDS011;61690;51.824;6.306;2023-07-09T07:14:48;11.10;;;7.00;;
73454;SDS011;61690;51.824;6.306;2023-07-09T07:17:13;10.70;;;6.77;;
73454;SDS011;61690;51.824;6.306;2023-07-09T07:19:39;14.65;;;7.30;;
73454;SDS011;61690;51.824;6.306;2023-07-09T07:22:04;11.47;;;6.97;;
73454;SDS011;61690;51.824;6.306;2023-07-09T07:24:32;13.65;;;6.80;;
73454;SDS011;61690;51.824;6.306;2023-07-09T07:26:57;10.43;;;6.60;;
73454;SDS011;61690;51.824;6.306;2023-07-09T07:29:22;11.97;;;7.07;;
73454;SDS011;61690;51.824;6.306;2023-07-09T07:31:48;12.23;;;6.80;;
73454;SDS011;61690;51.824;6.306;2023-07-09T07:34:13;9.80;;;6.45;;
73454;SDS011;61690;51.824;6.306;2023-07-09T07:36:39;19.30;;;6.87;;
73454;SDS011;61690;51.824;6.306;2023-07-09T07:39:04;9.80;;;6.70;;
73454;SDS011;61690;51.824;6.306;2023-07-09T07:41:30;9.80;;;6.47;;
73454;SDS011;61690;51.824;6.306;2023-07-09T07:43:55;10.80;;;6.57;;
73454;SDS011;61690;51.824;6.306;2023-07-09T07:46:20;12.77;;;6.47;;
73454;SDS011;61690;51.824;6.306;2023-07-09T07:48:47;10.98;;;6.72;;
73454;SDS011;61690;51.824;6.306;2023-07-09T07:51:12;12.77;;;6.60;;
73454;SDS011;61690;51.824;6.306;2023-07-09T07:53:38;11.00;;;6.43;;
73454;SDS011;61690;51.824;6.306;2023-07-09T07:56:03;11.07;;;6.23;;
73454;SDS011;61690;51.824;6.306;2023-07-09T07:58:29;10.15;;;6.15;;
73454;SDS011;61690;51.824;6.306;2023-07-09T08:00:56;10.20;;;6.13;;
73454;SDS011;61690;51.824;6.306;2023-07-09T08:03:22;10.05;;;6.60;;
73454;SDS011;61690;51.824;6.306;2023-07-09T08:05:50;11.68;;;6.47;;
73454;SDS011;61690;51.824;6.306;2023-07-09T08:08:16;11.90;;;6.53;;
73454;SDS011;61690;51.824;6.306;2023-07-09T08:10:42;11.10;;;6.50;;
73454;SDS011;61690;51.824;6.306;2023-07-09T08:13:07;10.87;;;6.70;;
73454;SDS011;61690;51.824;6.306;2023-07-09T08:15:33;11.90;;;6.30;;
73454;SDS011;61690;51.824;6.306;2023-07-09T08:17:59;11.48;;;6.18;;
73454;SDS011;61690;51.824;6.306;2023-07-09T08:20:24;10.33;;;6.40;;
73454;SDS011;61690;51.824;6.306;2023-07-09T08:22:50;10.60;;;6.23;;
73454;SDS011;61690;51.824;6.306;2023-07-09T08:25:15;10.52;;;5.90;;
73454;SDS011;61690;51.824;6.306;2023-07-09T08:27:40;10.10;;;6.67;;
73454;SDS011;61690;51.824;6.306;2023-07-09T08:30:06;11.07;;;6.60;;
73454;SDS011;61690;51.824;6.306;2023-07-09T08:32:32;11.07;;;6.32;;
73454;SDS011;61690;51.824;6.306;2023-07-09T08:34:58;10.23;;;6.33;;
73454;SDS011;61690;51.824;6.306;2023-07-09T08:37:23;9.83;;;6.10;;
73454;SDS011;61690;51.824;6.306;2023-07-09T08:39:50;8.90;;;6.10;;
73454;SDS011;61690;51.824;6.306;2023-07-09T08:42:38;9.48;;;6.40;;
73454;SDS011;61690;51.824;6.306;2023-07-09T08:45:24;10.00;;;6.63;;
73454;SDS011;61690;51.824;6.306;2023-07-09T08:48:09;11.02;;;6.10;;
73454;SDS011;61690;51.824;6.306;2023-07-09T08:50:45;9.95;;;6.38;;
73454;SDS011;61690;51.824;6.306;2023-07-09T08:53:31;9.03;;;6.10;;
73454;SDS011;61690;51.824;6.306;2023-07-09T08:56:01;9.38;;;6.25;;
73454;SDS011;61690;51.824;6.306;2023-07-09T08:58:30;9.88;;;6.07;;
73454;SDS011;61690;51.824;6.306;2023-07-09T09:01:03;10.25;;;6.22;;
73454;SDS011;61690;51.824;6.306;2023-07-09T09:06:27;9.70;;;6.13;;
73454;SDS011;61690;51.824;6.306;2023-07-09T09:08:55;9.48;;;5.88;;
73454;SDS011;61690;51.824;6.306;2023-07-09T09:14:15;8.73;;;6.00;;
73454;SDS011;61690;51.824;6.306;2023-07-09T09:16:47;10.38;;;6.43;;
73454;SDS011;61690;51.824;6.306;2023-07-09T09:22:28;10.18;;;5.72;;
73454;SDS011;61690;51.824;6.306;2023-07-09T09:27:42;9.07;;;6.00;;
73454;SDS011;61690;51.824;6.306;2023-07-09T09:30:10;9.85;;;6.28;;
73454;SDS011;61690;51.824;6.306;2023-07-09T09:32:47;9.60;;;5.57;;
73454;SDS011;61690;51.824;6.306;2023-07-09T09:35:18;10.07;;;5.80;;
73454;SDS011;61690;51.824;6.306;2023-07-09T09:37:56;9.20;;;5.82;;
73454;SDS011;61690;51.824;6.306;2023-07-09T09:40:23;9.57;;;6.13;;
73454;SDS011;61690;51.824;6.306;2023-07-09T09:42:51;9.27;;;6.30;;
73454;SDS011;61690;51.824;6.306;2023-07-09T09:45:20;9.87;;;5.80;;
73454;SDS011;61690;51.824;6.306;2023-07-09T09:47:46;9.57;;;5.80;;
73454;SDS011;61690;51.824;6.306;2023-07-09T09:50:17;9.40;;;5.85;;
73454;SDS011;61690;51.824;6.306;2023-07-09T09:52:46;9.52;;;6.03;;
73454;SDS011;61690;51.824;6.306;2023-07-09T09:55:17;11.00;;;6.53;;
73454;SDS011;61690;51.824;6.306;2023-07-09T09:57:48;9.97;;;5.90;;
73454;SDS011;61690;51.824;6.306;2023-07-09T10:00:15;9.05;;;5.80;;
73454;SDS011;61690;51.824;6.306;2023-07-09T10:02:42;8.60;;;5.88;;
73454;SDS011;61690;51.824;6.306;2023-07-09T10:05:14;9.60;;;5.90;;
73454;SDS011;61690;51.824;6.306;2023-07-09T10:07:44;9.20;;;5.63;;
73454;SDS011;61690;51.824;6.306;2023-07-09T10:10:18;8.53;;;5.73;;
73454;SDS011;61690;51.824;6.306;2023-07-09T10:12:52;9.18;;;5.85;;
73454;SDS011;61690;51.824;6.306;2023-07-09T10:21:14;9.13;;;5.90;;
73454;SDS011;61690;51.824;6.306;2023-07-09T10:26:39;8.95;;;5.68;;
73454;SDS011;61690;51.824;6.306;2023-07-09T10:34:58;9.15;;;5.82;;
73454;SDS011;61690;51.824;6.306;2023-07-09T10:37:48;7.93;;;5.73;;
73454;SDS011;61690;51.824;6.306;2023-07-09T10:40:23;8.10;;;5.53;;
73454;SDS011;61690;51.824;6.306;2023-07-09T10:42:54;9.75;;;5.78;;
73454;SDS011;61690;51.824;6.306;2023-07-09T10:45:59;9.70;;;5.90;;
73454;SDS011;61690;51.824;6.306;2023-07-09T10:51:15;8.97;;;5.77;;
73454;SDS011;61690;51.824;6.306;2023-07-09T10:53:45;8.25;;;5.47;;
73454;SDS011;61690;51.824;6.306;2023-07-09T10:56:22;8.05;;;5.38;;
73454;SDS011;61690;51.824;6.306;2023-07-09T10:59:03;8.35;;;5.70;;
73454;SDS011;61690;51.824;6.306;2023-07-09T11:01:40;8.73;;;5.60;;
73454;SDS011;61690;51.824;6.306;2023-07-09T11:07:03;8.70;;;5.43;;
73454;SDS011;61690;51.824;6.306;2023-07-09T11:09:33;8.63;;;5.80;;
73454;SDS011;61690;51.824;6.306;2023-07-09T11:12:09;8.30;;;5.70;;
73454;SDS011;61690;51.824;6.306;2023-07-09T11:14:46;8.70;;;5.82;;
73454;SDS011;61690;51.824;6.306;2023-07-09T11:17:14;8.00;;;5.13;;
73454;SDS011;61690;51.824;6.306;2023-07-09T11:19:44;8.40;;;5.38;;
73454;SDS011;61690;51.824;6.306;2023-07-09T11:22:35;8.45;;;5.55;;
73454;SDS011;61690;51.824;6.306;2023-07-09T11:25:10;9.68;;;5.97;;
73454;SDS011;61690;51.824;6.306;2023-07-09T11:27:51;8.57;;;5.50;;
73454;SDS011;61690;51.824;6.306;2023-07-09T11:30:21;8.37;;;5.30;;
73454;SDS011;61690;51.824;6.306;2023-07-09T11:33:04;8.55;;;5.57;;
73454;SDS011;61690;51.824;6.306;2023-07-09T11:35:44;8.70;;;5.60;;
73454;SDS011;61690;51.824;6.306;2023-07-09T11:38:15;8.88;;;5.63;;
73454;SDS011;61690;51.824;6.306;2023-07-09T11:40:50;8.25;;;5.68;;
73454;SDS011;61690;51.824;6.306;2023-07-09T11:43:27;8.30;;;5.23;;
73454;SDS011;61690;51.824;6.306;2023-07-09T11:45:56;9.05;;;5.68;;
73454;SDS011;61690;51.824;6.306;2023-07-09T11:48:29;8.50;;;5.68;;
73454;SDS011;61690;51.824;6.306;2023-07-09T11:51:00;9.45;;;5.70;;
73454;SDS011;61690;51.824;6.306;2023-07-09T11:53:34;8.98;;;5.57;;
73454;SDS011;61690;51.824;6.306;2023-07-09T11:56:07;8.70;;;5.30;;
73454;SDS011;61690;51.824;6.306;2023-07-09T11:58:33;8.77;;;5.60;;
73454;SDS011;61690;51.824;6.306;2023-07-09T12:00:58;8.17;;;5.20;;
73454;SDS011;61690;51.824;6.306;2023-07-09T12:06:17;8.50;;;5.53;;
73454;SDS011;61690;51.824;6.306;2023-07-09T12:08:51;8.70;;;5.60;;
73454;SDS011;61690;51.824;6.306;2023-07-09T12:11:22;8.90;;;5.40;;
73454;SDS011;61690;51.824;6.306;2023-07-09T12:13:53;8.95;;;5.55;;
73454;SDS011;61690;51.824;6.306;2023-07-09T12:16:20;8.43;;;5.60;;
73454;SDS011;61690;51.824;6.306;2023-07-09T12:18:50;7.43;;;5.40;;
73454;SDS011;61690;51.824;6.306;2023-07-09T12:21:16;8.60;;;5.10;;
73454;SDS011;61690;51.824;6.306;2023-07-09T12:23:41;10.57;;;5.77;;
73454;SDS011;61690;51.824;6.306;2023-07-09T12:26:11;7.97;;;5.35;;
73454;SDS011;61690;51.824;6.306;2023-07-09T12:28:39;8.13;;;5.30;;
73454;SDS011;61690;51.824;6.306;2023-07-09T12:31:09;8.43;;;4.80;;
73454;SDS011;61690;51.824;6.306;2023-07-09T12:33:46;9.35;;;5.30;;
73454;SDS011;61690;51.824;6.306;2023-07-09T12:36:17;10.07;;;5.30;;
73454;SDS011;61690;51.824;6.306;2023-07-09T12:38:44;7.43;;;4.87;;
73454;SDS011;61690;51.824;6.306;2023-07-09T12:41:18;7.90;;;5.43;;
73454;SDS011;61690;51.824;6.306;2023-07-09T12:43:47;7.70;;;5.00;;
73454;SDS011;61690;51.824;6.306;2023-07-09T12:46:14;8.40;;;4.90;;
73454;SDS011;61690;51.824;6.306;2023-07-09T12:48:40;8.68;;;5.20;;
73454;SDS011;61690;51.824;6.306;2023-07-09T12:51:07;8.20;;;4.77;;
73454;SDS011;61690;51.824;6.306;2023-07-09T12:53:33;8.60;;;5.10;;
73454;SDS011;61690;51.824;6.306;2023-07-09T12:56:01;7.50;;;5.03;;
73454;SDS011;61690;51.824;6.306;2023-07-09T12:58:31;8.40;;;5.00;;
73454;SDS011;61690;51.824;6.306;2023-07-09T13:01:04;8.63;;;4.70;;
73454;SDS011;61690;51.824;6.306;2023-07-09T13:03:32;8.27;;;5.25;;
73454;SDS011;61690;51.824;6.306;2023-07-09T13:06:03;8.60;;;4.97;;
73454;SDS011;61690;51.824;6.306;2023-07-09T13:08:31;7.87;;;4.80;;
73454;SDS011;61690;51.824;6.306;2023-07-09T13:10:59;7.88;;;5.07;;
73454;SDS011;61690;51.824;6.306;2023-07-09T13:13:26;7.53;;;5.05;;
73454;SDS011;61690;51.824;6.306;2023-07-09T13:15:56;9.70;;;5.43;;
73454;SDS011;61690;51.824;6.306;2023-07-09T13:18:24;7.53;;;4.70;;
73454;SDS011;61690;51.824;6.306;2023-07-09T13:20:50;7.78;;;4.93;;
73454;SDS011;61690;51.824;6.306;2023-07-09T13:23:29;7.82;;;4.85;;
73454;SDS011;61690;51.824;6.306;2023-07-09T13:25:57;7.70;;;4.90;;
73454;SDS011;61690;51.824;6.306;2023-07-09T13:30:53;7.53;;;4.88;;
73454;SDS011;61690;51.824;6.306;2023-07-09T13:33:21;8.05;;;4.72;;
73454;SDS011;61690;51.824;6.306;2023-07-09T13:35:48;7.65;;;4.60;;
73454;SDS011;61690;51.824;6.306;2023-07-09T13:38:17;6.93;;;4.50;;
73454;SDS011;61690;51.824;6.306;2023-07-09T13:40:48;8.40;;;4.50;;
73454;SDS011;61690;51.824;6.306;2023-07-09T13:43:18;7.97;;;4.90;;
73454;SDS011;61690;51.824;6.306;2023-07-09T13:45:46;7.33;;;4.60;;
73454;SDS011;61690;51.824;6.306;2023-07-09T13:48:17;7.97;;;4.47;;
73454;SDS011;61690;51.824;6.306;2023-07-09T13:50:46;8.30;;;4.68;;
73454;SDS011;61690;51.824;6.306;2023-07-09T13:53:15;7.22;;;4.20;;
73454;SDS011;61690;51.824;6.306;2023-07-09T13:55:46;7.10;;;4.55;;
73454;SDS011;61690;51.824;6.306;2023-07-09T13:58:14;8.77;;;4.97;;
73454;SDS011;61690;51.824;6.306;2023-07-09T14:00:42;8.70;;;4.75;;
73454;SDS011;61690;51.824;6.306;2023-07-09T14:03:12;8.07;;;4.72;;
73454;SDS011;61690;51.824;6.306;2023-07-09T14:05:40;8.18;;;4.53;;
73454;SDS011;61690;51.824;6.306;2023-07-09T14:08:07;8.27;;;4.53;;
73454;SDS011;61690;51.824;6.306;2023-07-09T14:10:34;7.35;;;4.50;;
73454;SDS011;61690;51.824;6.306;2023-07-09T14:12:59;7.77;;;4.77;;
73454;SDS011;61690;51.824;6.306;2023-07-09T14:15:27;6.28;;;4.30;;
73454;SDS011;61690;51.824;6.306;2023-07-09T14:17:53;7.67;;;4.60;;
73454;SDS011;61690;51.824;6.306;2023-07-09T14:20:19;7.38;;;4.40;;
73454;SDS011;61690;51.824;6.306;2023-07-09T14:22:46;8.13;;;4.55;;
73454;SDS011;61690;51.824;6.306;2023-07-09T14:25:17;7.38;;;4.22;;
73454;SDS011;61690;51.824;6.306;2023-07-09T14:27:45;6.65;;;4.38;;
73454;SDS011;61690;51.824;6.306;2023-07-09T14:30:15;7.43;;;4.27;;
73454;SDS011;61690;51.824;6.306;2023-07-09T14:35:49;7.30;;;4.38;;
73454;SDS011;61690;51.824;6.306;2023-07-09T14:38:16;7.17;;;4.47;;
73454;SDS011;61690;51.824;6.306;2023-07-09T14:40:45;7.28;;;4.13;;
73454;SDS011;61690;51.824;6.306;2023-07-09T14:43:11;7.70;;;4.43;;
73454;SDS011;61690;51.824;6.306;2023-07-09T14:45:37;7.13;;;4.40;;
73454;SDS011;61690;51.824;6.306;2023-07-09T14:48:08;8.13;;;4.30;;
73454;SDS011;61690;51.824;6.306;2023-07-09T14:50:34;7.38;;;4.57;;
73454;SDS011;61690;51.824;6.306;2023-07-09T14:53:00;6.77;;;4.37;;
73454;SDS011;61690;51.824;6.306;2023-07-09T14:55:25;6.77;;;4.40;;
73454;SDS011;61690;51.824;6.306;2023-07-09T14:57:50;7.28;;;4.38;;
73454;SDS011;61690;51.824;6.306;2023-07-09T15:00:17;7.03;;;4.40;;
73454;SDS011;61690;51.824;6.306;2023-07-09T15:42:58;10.60;;;5.33;;
73454;SDS011;61690;51.824;6.306;2023-07-09T15:45:36;9.95;;;5.13;;
73454;SDS011;61690;51.824;6.306;2023-07-09T15:48:05;8.45;;;5.07;;
73454;SDS011;61690;51.824;6.306;2023-07-09T15:50:31;9.10;;;5.57;;
73454;SDS011;61690;51.824;6.306;2023-07-09T15:53:00;8.88;;;5.18;;
73454;SDS011;61690;51.824;6.306;2023-07-09T15:55:26;8.70;;;5.30;;
73454;SDS011;61690;51.824;6.306;2023-07-09T15:57:55;9.30;;;5.30;;
73454;SDS011;61690;51.824;6.306;2023-07-09T16:00:24;7.95;;;4.97;;
73454;SDS011;61690;51.824;6.306;2023-07-09T16:02:52;7.83;;;5.30;;
73454;SDS011;61690;51.824;6.306;2023-07-09T16:07:55;9.10;;;5.18;;
73454;SDS011;61690;51.824;6.306;2023-07-09T16:10:23;12.05;;;5.15;;